Time;durP1;ratioP1;P1;durP2;ratioP2;P2;SDS_P1;SDS_P2;PMS_P1;PMS_P2;Temp;Humidity;BMP_temperature;BMP_pressure;BME280_temperature;BME280_humidity;BME280_pressure;Samples;Min_cycle;Max_cycle;Signal;HPM_P1;HPM_P2
2021/01/14 00:02:00;;;;;;;16.67;9.18;;;;;;;4.41;59.42;98981.38;4278953;33;20100;-91
2021/01/14 00:04:25;;;;;;;18.75;9.32;;;;;;;4.44;59.43;98981.31;4280121;33;20103;-92
2021/01/14 00:06:52;;;;;;;22.62;10.35;;;;;;;4.50;59.44;98976.06;4279819;33;24744;-93
2021/01/14 00:09:17;;;;;;;20.40;10.98;;;;;;;4.41;59.42;98964.19;4279981;33;20077;-93
2021/01/14 00:11:46;;;;;;;23.15;10.80;;;;;;;4.43;59.43;98965.00;4291972;33;20128;-93
2021/01/14 00:14:11;;;;;;;21.12;11.23;;;;;;;4.50;59.44;98958.00;4280397;33;20122;-92
2021/01/14 00:16:37;;;;;;;20.83;10.55;;;;;;;4.46;59.43;98940.91;4279500;33;27826;-93
2021/01/14 00:19:04;;;;;;;23.23;10.30;;;;;;;4.51;59.43;98939.94;4279312;33;25888;-93
2021/01/14 00:21:29;;;;;;;20.95;10.32;;;;;;;4.38;59.42;98937.62;4280213;33;20119;-93
2021/01/14 00:23:56;;;;;;;20.85;11.18;;;;;;;4.36;59.43;98947.13;4279870;33;26651;-93
2021/01/14 00:26:22;;;;;;;22.05;11.12;;;;;;;4.35;59.43;98951.44;4280254;33;20123;-93
2021/01/14 00:28:48;;;;;;;22.70;11.65;;;;;;;4.34;59.42;98961.75;4278943;33;33092;-92
2021/01/14 00:31:13;;;;;;;23.65;13.70;;;;;;;4.26;59.41;98959.34;4291684;33;20391;-92
2021/01/14 00:33:38;;;;;;;24.12;11.95;;;;;;;4.28;59.42;98955.00;4280144;33;20111;-92
2021/01/14 00:36:04;;;;;;;23.17;12.60;;;;;;;4.32;59.41;98959.22;4279355;33;29083;-92
2021/01/14 00:38:30;;;;;;;26.12;12.98;;;;;;;4.45;59.43;98970.97;4279994;33;20148;-93
2021/01/14 00:40:55;;;;;;;24.87;13.77;;;;;;;4.38;59.42;98961.66;4291505;33;24016;-94
2021/01/14 00:43:20;;;;;;;25.70;13.88;;;;;;;4.40;59.42;98962.50;4279604;33;24788;-93
2021/01/14 00:45:48;;;;;;;25.10;12.50;;;;;;;4.27;59.42;98966.19;4281225;33;20179;-93
2021/01/14 00:48:14;;;;;;;21.48;11.55;;;;;;;4.37;59.42;98952.25;4282079;33;20748;-93
2021/01/14 00:50:39;;;;;;;25.35;11.82;;;;;;;4.37;59.43;98962.56;4293326;33;26144;-93
2021/01/14 00:53:05;;;;;;;24.20;11.05;;;;;;;4.25;59.41;98976.50;4281551;33;20108;-93
2021/01/14 00:55:30;;;;;;;22.65;12.25;;;;;;;4.37;59.43;98982.31;4281826;33;20189;-93
2021/01/14 00:57:55;;;;;;;27.33;12.70;;;;;;;4.30;59.42;98981.59;4282476;33;25037;-90
2021/01/14 01:00:22;;;;;;;22.37;11.55;;;;;;;4.29;59.42;98975.59;4281109;33;20147;-91
2021/01/14 01:02:51;;;;;;;20.85;10.63;;;;;;;4.31;59.42;98976.41;4280649;33;20104;-92
2021/01/14 01:05:16;;;;;;;19.87;9.80;;;;;;;4.30;59.42;98973.88;4281535;33;20112;-92
2021/01/14 01:07:52;;;;;;;17.08;9.95;;;;;;;4.21;59.42;98971.44;4281183;33;20352;-92
2021/01/14 01:10:18;;;;;;;18.12;9.82;;;;;;;4.15;59.41;98980.13;4281317;33;20078;-91
2021/01/14 01:12:43;;;;;;;20.42;8.93;;;;;;;4.39;59.42;98977.97;4281369;33;20112;-92
2021/01/14 01:15:09;;;;;;;14.52;7.30;;;;;;;4.14;59.41;98975.00;4280636;33;22920;-92
2021/01/14 01:17:34;;;;;;;9.88;5.32;;;;;;;4.18;59.41;98966.34;4305593;33;20119;-91
2021/01/14 01:20:00;;;;;;;8.27;4.45;;;;;;;4.22;59.42;98957.69;4281153;33;20116;-91
2021/01/14 01:22:25;;;;;;;9.25;4.55;;;;;;;4.12;59.42;98963.91;4281158;33;20164;-92
2021/01/14 01:24:51;;;;;;;7.65;4.32;;;;;;;4.11;59.41;98963.06;4281073;33;20446;-93
2021/01/14 01:27:16;;;;;;;8.23;4.18;;;;;;;4.04;59.40;98961.47;4281094;33;20179;-92
2021/01/14 01:29:42;;;;;;;6.30;3.10;;;;;;;4.08;59.41;98959.69;4280331;33;25545;-92
2021/01/14 01:32:07;;;;;;;7.45;3.30;;;;;;;4.26;59.41;98949.03;4280268;33;26177;-92
2021/01/14 01:34:32;;;;;;;5.43;2.35;;;;;;;4.28;59.42;98947.28;4280604;33;20193;-91
2021/01/14 01:36:58;;;;;;;4.90;2.30;;;;;;;4.52;59.43;98936.50;4279819;33;28126;-92
2021/01/14 01:39:23;;;;;;;6.62;3.08;;;;;;;4.47;59.42;98943.44;4280513;33;20443;-92
2021/01/14 01:41:48;;;;;;;5.53;2.58;;;;;;;4.73;59.44;98931.72;4280036;33;22224;-92
2021/01/14 01:44:14;;;;;;;5.78;2.83;;;;;;;4.90;59.45;98932.22;4291976;33;22494;-91
2021/01/14 01:46:39;;;;;;;7.68;3.05;;;;;;;4.99;59.45;98924.31;4280281;33;20180;-90
2021/01/14 01:49:05;;;;;;;6.32;2.85;;;;;;;4.82;59.45;98910.94;4279593;33;37174;-91
2021/01/14 01:51:32;;;;;;;5.45;2.58;;;;;;;4.89;59.45;98904.75;4280199;33;20123;-91
2021/01/14 01:53:58;;;;;;;4.55;1.92;;;;;;;5.07;59.46;98904.31;4280305;33;20108;-91
2021/01/14 01:56:24;;;;;;;4.05;2.17;;;;;;;5.08;59.46;98900.88;4280282;33;20184;-92
2021/01/14 01:58:49;;;;;;;2.90;1.62;;;;;;;4.97;59.46;98900.28;4280130;33;33158;-93
2021/01/14 02:01:14;;;;;;;5.00;1.80;;;;;;;4.97;59.45;98891.66;4280631;33;20160;-91
2021/01/14 02:03:40;;;;;;;3.45;1.25;;;;;;;4.84;59.44;98891.13;4280293;33;20724;-90
2021/01/14 02:06:05;;;;;;;3.35;1.17;;;;;;;4.77;59.44;98892.12;4280215;33;20119;-92
2021/01/14 02:08:45;;;;;;;2.50;1.10;;;;;;;4.62;59.44;98889.00;4280783;33;20156;-91
2021/01/14 02:11:30;;;;;;;3.92;1.37;;;;;;;4.58;59.44;98884.81;4280860;33;20092;-91
2021/01/14 02:14:02;;;;;;;4.95;1.27;;;;;;;4.63;59.43;98875.22;4280443;33;20100;-90
2021/01/14 02:16:28;;;;;;;5.10;1.40;;;;;;;4.41;59.42;98866.28;4304118;33;20064;-91
2021/01/14 02:18:54;;;;;;;5.32;1.50;;;;;;;4.54;59.43;98856.56;4280030;33;20097;-91
2021/01/14 02:21:20;;;;;;;2.40;1.08;;;;;;;4.79;59.45;98851.69;4280007;33;20148;-91
2021/01/14 02:23:48;;;;;;;2.65;1.40;;;;;;;4.91;59.45;98841.09;4279638;33;33308;-92
2021/01/14 02:26:21;;;;;;;3.12;1.50;;;;;;;4.92;59.45;98825.56;4304414;33;20101;-91
2021/01/14 02:28:46;;;;;;;4.97;1.67;;;;;;;4.97;59.46;98825.50;4293145;33;20096;-92
2021/01/14 02:31:12;;;;;;;4.03;1.20;;;;;;;5.09;59.47;98812.28;4304412;33;20453;-92
2021/01/14 02:33:38;;;;;;;1.98;0.98;;;;;;;4.92;59.45;98817.00;4292471;33;20172;-92
2021/01/14 02:36:04;;;;;;;3.15;1.02;;;;;;;4.93;59.45;98808.38;4292982;33;20123;-92
2021/01/14 02:38:29;;;;;;;2.78;0.85;;;;;;;4.85;59.45;98793.09;4306021;33;20080;-91
2021/01/14 02:40:54;;;;;;;2.15;0.80;;;;;;;5.17;59.47;98789.72;4304419;33;20112;-92
2021/01/14 02:43:20;;;;;;;3.08;1.10;;;;;;;4.96;59.45;98787.66;4303940;33;20172;-90
2021/01/14 02:45:45;;;;;;;2.33;0.98;;;;;;;4.91;59.45;98785.19;4280045;33;20482;-91
2021/01/14 02:48:12;;;;;;;3.60;1.00;;;;;;;4.83;59.45;98778.56;4279415;33;20631;-91
2021/01/14 02:50:38;;;;;;;1.60;0.80;;;;;;;4.90;59.45;98773.19;4280125;33;20153;-89
2021/01/14 02:53:03;;;;;;;2.90;0.90;;;;;;;4.82;59.45;98777.69;4292072;33;20089;-93
2021/01/14 02:55:29;;;;;;;2.80;1.00;;;;;;;4.96;59.45;98774.78;4278905;33;29981;-90
2021/01/14 02:57:54;;;;;;;1.65;0.70;;;;;;;5.16;59.46;98769.09;4279259;33;20123;-91
2021/01/14 03:00:19;;;;;;;2.60;0.68;;;;;;;5.22;59.47;98762.09;4282347;33;29929;-91
2021/01/14 03:02:45;;;;;;;2.47;0.77;;;;;;;5.19;59.47;98763.88;4292651;33;20116;-91
2021/01/14 03:05:11;;;;;;;1.60;0.98;;;;;;;5.44;59.48;98754.62;4279794;33;20123;-92
2021/01/14 03:07:36;;;;;;;3.20;0.90;;;;;;;5.38;59.47;98748.75;4279502;33;20179;-92
2021/01/14 03:10:02;;;;;;;1.48;1.00;;;;;;;5.09;59.46;98745.22;4279448;33;22216;-93
2021/01/14 03:12:27;;;;;;;4.12;1.05;;;;;;;5.08;59.46;98742.69;4280231;33;20415;-92
2021/01/14 03:14:52;;;;;;;2.45;1.12;;;;;;;5.10;59.46;98744.31;4280044;33;29203;-90
2021/01/14 03:17:18;;;;;;;1.25;0.93;;;;;;;5.27;59.47;98737.88;4280260;33;20128;-93
2021/01/14 03:19:43;;;;;;;2.45;1.40;;;;;;;5.22;59.47;98738.88;4279845;33;23963;-93
2021/01/14 03:22:09;;;;;;;2.12;1.35;;;;;;;5.31;59.47;98731.75;4278870;33;20104;-88
2021/01/14 03:24:34;;;;;;;2.55;1.17;;;;;;;5.22;59.46;98733.69;4289975;33;33811;-90
2021/01/14 03:26:59;;;;;;;3.15;1.10;;;;;;;5.39;59.48;98729.81;4290549;33;20393;-90
2021/01/14 03:29:25;;;;;;;5.32;1.12;;;;;;;5.27;59.47;98727.56;4278250;33;20147;-90
2021/01/14 03:31:50;;;;;;;1.90;0.90;;;;;;;5.37;59.48;98723.84;4278078;33;20743;-90
2021/01/14 03:34:15;;;;;;;0.98;0.88;;;;;;;5.48;59.48;98721.81;4278645;33;20132;-90
2021/01/14 03:39:25;;;;;;;1.67;1.00;;;;;;;5.33;59.48;98719.66;4293009;33;20241;-90
2021/01/14 03:41:52;;;;;;;2.25;1.20;;;;;;;5.46;59.48;98715.84;4303102;33;20112;-91
2021/01/14 03:44:17;;;;;;;2.45;1.30;;;;;;;5.40;59.48;98713.44;4280446;33;20159;-92
2021/01/14 03:46:47;;;;;;;2.12;1.23;;;;;;;5.26;59.47;98707.81;4279750;33;20160;-91
2021/01/14 03:49:13;;;;;;;2.22;1.20;;;;;;;5.31;59.48;98717.12;4279668;33;20665;-92
2021/01/14 03:51:38;;;;;;;2.58;1.40;;;;;;;4.89;59.45;98711.34;4279535;33;20131;-91
2021/01/14 03:54:04;;;;;;;3.05;1.60;;;;;;;4.69;59.44;98708.44;4279491;33;20131;-92
2021/01/14 03:56:34;;;;;;;3.30;1.92;;;;;;;4.90;59.45;98710.47;4279482;33;20104;-91
2021/01/14 03:58:59;;;;;;;3.72;2.17;;;;;;;5.03;59.46;98714.44;4280316;33;20141;-91
2021/01/14 04:01:25;;;;;;;5.72;2.70;;;;;;;4.94;59.46;98705.19;4278586;33;32364;-89
2021/01/14 04:03:50;;;;;;;7.87;3.37;;;;;;;5.07;59.46;98697.13;4277531;33;31037;-89
2021/01/14 04:06:16;;;;;;;6.05;3.05;;;;;;;5.06;59.46;98701.44;4277961;33;22883;-90
2021/01/14 04:08:41;;;;;;;6.45;3.40;;;;;;;4.97;59.46;98695.66;4289861;33;21461;-90
2021/01/14 04:11:09;;;;;;;7.00;3.92;;;;;;;4.91;59.45;98705.28;4278228;33;20164;-90
2021/01/14 04:13:34;;;;;;;6.57;3.28;;;;;;;4.97;59.46;98705.97;4277585;33;35607;-90
2021/01/14 04:15:59;;;;;;;6.57;3.55;;;;;;;4.88;59.45;98701.94;4278915;33;20135;-91
2021/01/14 04:18:25;;;;;;;6.97;3.47;;;;;;;4.97;59.46;98696.53;4278310;33;26746;-90
2021/01/14 04:20:51;;;;;;;10.15;4.25;;;;;;;4.61;59.43;98696.59;4278012;33;30378;-90
2021/01/14 04:23:16;;;;;;;10.07;4.87;;;;;;;4.66;59.44;98698.19;4302625;33;20167;-91
2021/01/14 04:25:43;;;;;;;9.38;4.35;;;;;;;4.43;59.43;98702.19;4290692;33;20084;-91
2021/01/14 04:28:08;;;;;;;8.93;4.45;;;;;;;4.37;59.43;98704.91;4291232;33;20093;-91
2021/01/14 04:30:34;;;;;;;8.40;4.87;;;;;;;4.66;59.44;98700.78;4291997;33;29382;-91
2021/01/14 04:33:12;;;;;;;9.13;4.68;;;;;;;4.71;59.44;98694.62;4305583;33;20525;-90
2021/01/14 04:35:50;;;;;;;9.63;5.57;;;;;;;4.66;59.44;98700.78;4305269;33;20095;-91
2021/01/14 04:38:16;;;;;;;10.63;5.30;;;;;;;4.60;59.44;98689.75;4304612;33;20088;-89
2021/01/14 04:40:42;;;;;;;10.48;4.95;;;;;;;4.69;59.44;98698.13;4317152;33;20089;-89
2021/01/14 04:43:10;;;;;;;11.27;5.40;;;;;;;4.61;59.43;98694.00;4292136;33;20467;-89
2021/01/14 04:45:35;;;;;;;9.38;5.53;;;;;;;4.59;59.43;98688.03;4304146;33;20084;-89
2021/01/14 04:48:01;;;;;;;9.23;5.25;;;;;;;4.46;59.43;98693.53;4303073;33;30120;-89
2021/01/14 04:50:27;;;;;;;10.02;5.40;;;;;;;4.45;59.43;98682.37;4281146;33;20495;-91
2021/01/14 04:52:54;;;;;;;8.05;4.80;;;;;;;4.42;59.43;98687.59;4280919;33;20500;-91
2021/01/14 04:55:21;;;;;;;10.55;4.85;;;;;;;4.02;59.40;98687.69;4294124;33;20760;-91
2021/01/14 04:57:46;;;;;;;10.63;4.53;;;;;;;4.10;59.41;98695.25;4294193;33;20123;-92
2021/01/14 05:00:13;;;;;;;7.30;4.32;;;;;;;4.16;59.41;98687.38;4304333;33;25548;-89
2021/01/14 05:03:06;;;;;;;7.82;4.05;;;;;;;4.14;59.41;98702.88;4281485;33;20116;-89
2021/01/14 05:05:32;;;;;;;9.32;4.70;;;;;;;3.95;59.40;98707.56;4303062;33;20153;-89
2021/01/14 05:08:03;;;;;;;8.32;4.18;;;;;;;3.87;59.39;98695.75;4295577;33;20681;-91
2021/01/14 05:10:28;;;;;;;7.57;3.60;;;;;;;3.75;59.38;98706.31;4280013;33;20108;-89
2021/01/14 05:12:54;;;;;;;8.60;4.10;;;;;;;3.81;59.39;98693.34;4303151;33;24512;-89
2021/01/14 05:15:20;;;;;;;7.45;4.20;;;;;;;3.76;59.38;98690.00;4292043;33;20096;-92
2021/01/14 05:17:46;;;;;;;7.78;4.30;;;;;;;3.83;59.40;98691.56;4281315;33;31646;-92
2021/01/14 05:20:11;;;;;;;9.30;4.80;;;;;;;3.78;59.39;98688.22;4281328;33;26894;-91
2021/01/14 05:22:38;;;;;;;8.93;4.90;;;;;;;3.75;59.38;98694.28;4291849;33;20111;-90
2021/01/14 05:25:07;;;;;;;6.90;4.32;;;;;;;3.92;59.40;98688.78;4280087;33;20164;-90
2021/01/14 05:27:33;;;;;;;9.27;4.60;;;;;;;4.00;59.40;98692.03;4303638;33;20083;-89
2021/01/14 05:30:06;;;;;;;8.80;4.97;;;;;;;3.66;59.38;98694.50;4279879;33;20146;-90
2021/01/14 05:32:39;;;;;;;12.18;6.32;;;;;;;3.74;59.39;98699.47;4306643;33;20790;-90
2021/01/14 05:35:06;;;;;;;13.35;7.32;;;;;;;3.86;59.40;98691.50;4282724;33;20088;-91
2021/01/14 05:37:44;;;;;;;13.02;7.10;;;;;;;3.87;59.39;98690.63;4294147;33;20441;-89
2021/01/14 05:40:21;;;;;;;13.68;7.93;;;;;;;3.88;59.39;98698.31;4284007;33;20133;-90
2021/01/14 05:43:01;;;;;;;15.75;8.45;;;;;;;3.92;59.40;98702.50;4295375;33;20167;-90
2021/01/14 05:45:27;;;;;;;18.45;8.95;;;;;;;4.11;59.41;98697.78;4295383;33;20096;-91
2021/01/14 05:48:08;;;;;;;22.00;10.00;;;;;;;3.96;59.40;98701.53;4294212;33;20176;-89
2021/01/14 05:50:41;;;;;;;14.80;8.20;;;;;;;4.05;59.40;98689.37;4282672;33;20154;-89
2021/01/14 05:53:12;;;;;;;13.80;8.68;;;;;;;4.00;59.40;98686.88;4294893;33;20095;-92
2021/01/14 05:55:38;;;;;;;19.62;9.40;;;;;;;4.15;59.41;98693.41;4282178;33;20093;-89
2021/01/14 05:58:03;;;;;;;20.60;9.45;;;;;;;4.00;59.40;98692.88;4294139;33;31253;-90
2021/01/14 06:00:35;;;;;;;18.00;9.55;;;;;;;4.11;59.40;98691.78;4293685;33;29393;-90
2021/01/14 06:03:21;;;;;;;16.50;10.13;;;;;;;3.86;59.40;98692.34;4294780;33;20095;-91
2021/01/14 06:05:46;;;;;;;20.10;9.98;;;;;;;3.85;59.40;98687.22;4295215;33;20863;-91
2021/01/14 06:08:19;;;;;;;19.45;9.68;;;;;;;3.76;59.39;98690.84;4282462;33;33877;-91
2021/01/14 06:10:45;;;;;;;17.15;9.32;;;;;;;3.81;59.38;98683.03;4284042;33;20123;-91
2021/01/14 06:13:10;;;;;;;16.58;8.05;;;;;;;3.94;59.40;98698.16;4295662;33;20161;-93
2021/01/14 06:15:36;;;;;;;14.15;7.43;;;;;;;3.80;59.39;98705.34;4282982;33;27444;-91
2021/01/14 06:18:08;;;;;;;11.77;6.07;;;;;;;3.77;59.39;98713.13;4283524;33;20176;-91
2021/01/14 06:20:33;;;;;;;12.65;6.53;;;;;;;3.44;59.37;98708.69;4295826;33;20103;-91
2021/01/14 06:22:59;;;;;;;12.07;6.72;;;;;;;3.35;59.36;98718.28;4283022;33;26963;-91
2021/01/14 06:25:26;;;;;;;11.88;6.05;;;;;;;3.09;59.36;98717.94;4295324;33;20104;-91
2021/01/14 06:27:59;;;;;;;14.52;6.82;;;;;;;3.10;59.35;98711.91;4283693;33;20489;-92
2021/01/14 06:30:24;;;;;;;12.55;6.37;;;;;;;2.97;59.34;98706.13;4284623;33;20773;-91
2021/01/14 06:33:02;;;;;;;10.73;5.97;;;;;;;2.91;59.34;98695.13;4283387;33;20136;-93
2021/01/14 06:35:28;;;;;;;10.75;6.30;;;;;;;2.88;59.34;98703.75;4283693;33;20123;-92
2021/01/14 06:37:54;;;;;;;13.23;7.47;;;;;;;2.59;59.32;98713.66;4283478;33;20116;-91
2021/01/14 06:40:19;;;;;;;14.75;8.57;;;;;;;2.58;59.33;98702.53;4282843;33;20099;-91
2021/01/14 06:42:44;;;;;;;13.18;6.80;;;;;;;2.49;59.31;98704.41;4281581;33;36503;-91
2021/01/14 06:45:12;;;;;;;18.42;7.43;;;;;;;2.41;59.31;98707.97;4294341;33;20120;-91
2021/01/14 06:47:38;;;;;;;11.70;7.43;;;;;;;2.54;59.32;98698.31;4294564;33;20153;-91
2021/01/14 06:50:16;;;;;;;11.45;6.65;;;;;;;2.55;59.32;98694.88;4294396;33;20844;-90
2021/01/14 06:53:14;;;;;;;11.00;7.15;;;;;;;2.54;59.32;98689.75;4319404;33;20092;-89
2021/01/14 06:55:39;;;;;;;18.98;7.22;;;;;;;2.53;59.32;98691.47;4301937;33;25703;-91
2021/01/14 06:58:08;;;;;;;10.95;6.53;;;;;;;2.49;59.31;98694.97;4282699;33;20167;-91
2021/01/14 07:00:38;;;;;;;10.23;6.90;;;;;;;2.43;59.32;98693.38;4294771;33;20179;-91
2021/01/14 07:03:16;;;;;;;12.85;6.60;;;;;;;2.47;59.31;98697.56;4294911;33;20138;-92
2021/01/14 07:05:44;;;;;;;12.57;7.28;;;;;;;2.44;59.32;98696.78;4306529;33;20092;-91
2021/01/14 07:08:32;;;;;;;12.40;6.75;;;;;;;2.51;59.32;98687.25;4306262;33;20096;-91
2021/01/14 07:11:01;;;;;;;13.82;6.78;;;;;;;2.42;59.31;98693.41;4294770;33;20753;-91
2021/01/14 07:13:31;;;;;;;14.13;7.65;;;;;;;2.46;59.31;98682.19;4306592;33;20096;-90
2021/01/14 07:15:58;;;;;;;13.43;7.18;;;;;;;1.99;59.29;98688.06;4281763;33;20115;-91
2021/01/14 07:18:27;;;;;;;15.55;7.40;;;;;;;2.08;59.29;98691.34;4294535;33;20096;-91
2021/01/14 07:20:53;;;;;;;11.25;6.95;;;;;;;2.32;59.31;98682.41;4293593;33;20111;-90
2021/01/14 07:23:18;;;;;;;10.88;6.28;;;;;;;2.30;59.31;98680.72;4280767;33;20112;-90
2021/01/14 07:25:44;;;;;;;15.27;7.53;;;;;;;2.07;59.30;98678.53;4280915;33;29985;-93
2021/01/14 07:28:19;;;;;;;13.70;7.40;;;;;;;2.25;59.30;98680.81;4299793;33;20168;-96
2021/01/14 07:30:45;;;;;;;13.62;6.65;;;;;;;2.44;59.32;98679.66;4322783;33;20880;-94
2021/01/14 07:33:10;;;;;;;12.63;6.53;;;;;;;2.29;59.31;98679.03;4319774;33;20103;-91
2021/01/14 07:35:43;;;;;;;13.70;6.80;;;;;;;2.15;59.30;98676.72;4295388;33;20486;-90
2021/01/14 07:38:13;;;;;;;12.25;6.60;;;;;;;2.19;59.30;98693.75;4294708;33;20171;-92
2021/01/14 07:40:39;;;;;;;12.43;6.50;;;;;;;1.86;59.29;98700.19;4294945;33;20107;-93
2021/01/14 07:43:07;;;;;;;13.18;6.03;;;;;;;1.92;59.29;98701.84;4308343;33;20104;-94
2021/01/14 07:45:33;;;;;;;9.32;5.37;;;;;;;1.99;59.29;98694.03;4302917;33;20060;-94
2021/01/14 07:48:23;;;;;;;10.75;5.28;;;;;;;2.02;59.29;98691.44;4319267;33;20142;-93
2021/01/14 07:50:57;;;;;;;11.00;5.03;;;;;;;1.98;59.28;98691.50;4308252;33;20135;-94
2021/01/14 07:53:23;;;;;;;6.05;3.67;;;;;;;1.85;59.29;98701.06;4295865;33;20077;-92
2021/01/14 07:55:49;;;;;;;8.80;4.80;;;;;;;1.75;59.27;98695.22;4308291;33;20859;-93
2021/01/14 07:58:20;;;;;;;7.40;3.92;;;;;;;1.74;59.27;98695.25;4295883;33;20092;-94
2021/01/14 08:01:05;;;;;;;11.15;4.57;;;;;;;1.79;59.28;98701.16;4320671;33;20096;-93
2021/01/14 08:03:42;;;;;;;9.15;4.70;;;;;;;1.77;59.28;98724.28;4321218;33;20086;-96
2021/01/14 08:06:34;;;;;;;7.37;3.97;;;;;;;1.80;59.28;98723.38;4324950;33;20095;-94
2021/01/14 08:09:09;;;;;;;9.52;4.12;;;;;;;1.94;59.29;98726.63;4315356;33;20086;-95
2021/01/14 08:11:35;;;;;;;7.82;4.35;;;;;;;1.77;59.28;98731.13;4300153;33;20119;-94
2021/01/14 08:14:06;;;;;;;7.68;3.65;;;;;;;1.81;59.28;98728.50;4311603;33;20103;-92
2021/01/14 08:16:47;;;;;;;8.80;3.85;;;;;;;1.91;59.28;98731.81;4308027;33;20088;-87
2021/01/14 08:19:28;;;;;;;6.30;3.55;;;;;;;1.82;59.27;98740.47;4304866;33;20106;-89
2021/01/14 08:22:02;;;;;;;7.35;3.90;;;;;;;1.87;59.29;98739.53;4318149;33;20108;-91
2021/01/14 08:25:02;;;;;;;9.23;3.87;;;;;;;2.16;59.30;98734.88;4334146;33;20134;-92
2021/01/14 08:27:28;;;;;;;8.52;4.68;;;;;;;2.27;59.30;98729.56;4319244;33;20091;-89
2021/01/14 08:30:11;;;;;;;11.93;4.00;;;;;;;2.51;59.32;98731.75;4332680;33;20117;-89
2021/01/14 08:32:47;;;;;;;7.00;3.67;;;;;;;2.42;59.32;98730.19;4332297;33;20119;-89
2021/01/14 08:35:15;;;;;;;5.53;2.80;;;;;;;2.43;59.32;98736.19;4320731;33;20492;-89
2021/01/14 08:37:46;;;;;;;8.98;3.70;;;;;;;2.36;59.31;98740.53;4332478;33;20103;-95
2021/01/14 08:40:21;;;;;;;6.20;2.78;;;;;;;2.24;59.30;98734.75;4335558;33;20475;-92
2021/01/14 08:42:47;;;;;;;8.63;3.10;;;;;;;2.56;59.32;98735.09;4323285;33;20126;-93
2021/01/14 08:45:19;;;;;;;4.30;2.20;;;;;;;2.57;59.32;98741.94;4309174;33;20108;-91
2021/01/14 08:48:03;;;;;;;3.58;2.25;;;;;;;2.47;59.31;98733.53;4297470;33;20502;-88
2021/01/14 08:50:45;;;;;;;5.05;1.80;;;;;;;2.56;59.32;98731.69;4318539;33;20092;-89
2021/01/14 08:53:17;;;;;;;7.15;1.50;;;;;;;2.41;59.31;98741.34;4306769;33;20131;-91
2021/01/14 08:55:43;;;;;;;2.80;1.33;;;;;;;2.55;59.32;98750.53;4331031;33;20138;-89
2021/01/14 08:58:08;;;;;;;1.55;1.25;;;;;;;2.76;59.33;98755.34;4306689;33;20102;-89
2021/01/14 09:00:37;;;;;;;3.12;1.40;;;;;;;2.81;59.34;98758.66;4306221;33;20121;-88
2021/01/14 09:03:03;;;;;;;1.70;1.00;;;;;;;2.85;59.33;98764.63;4308301;33;20107;-90
2021/01/14 09:05:28;;;;;;;3.40;1.00;;;;;;;2.82;59.34;98767.22;4296814;33;20116;-91
2021/01/14 09:08:12;;;;;;;2.45;1.10;;;;;;;2.95;59.35;98776.44;4299397;33;20118;-93
2021/01/14 09:10:56;;;;;;;4.22;1.60;;;;;;;2.84;59.33;98774.06;4301782;33;20099;-90
2021/01/14 09:13:25;;;;;;;6.05;1.60;;;;;;;2.84;59.34;98775.75;4309468;33;20151;-91
2021/01/14 09:15:55;;;;;;;5.95;1.55;;;;;;;2.66;59.33;98780.34;4297223;33;20134;-89
2021/01/14 09:18:31;;;;;;;4.28;1.60;;;;;;;3.06;59.35;98783.06;4299157;33;20103;-91
2021/01/14 09:20:57;;;;;;;4.68;2.80;;;;;;;3.28;59.36;98780.97;4302368;33;20084;-92
2021/01/14 09:23:32;;;;;;;8.50;3.65;;;;;;;3.26;59.36;98777.59;4310853;33;20124;-91
2021/01/14 09:25:57;;;;;;;10.23;5.12;;;;;;;3.26;59.36;98790.44;4298943;33;20123;-91
2021/01/14 09:28:24;;;;;;;6.68;3.45;;;;;;;3.16;59.36;98788.94;4309858;33;20095;-90
2021/01/14 09:30:54;;;;;;;3.58;1.77;;;;;;;3.14;59.35;98790.69;4310083;33;20110;-92
2021/01/14 09:33:31;;;;;;;7.35;2.12;;;;;;;3.35;59.37;98794.59;4309441;33;20127;-91
2021/01/14 09:36:07;;;;;;;7.00;2.00;;;;;;;3.23;59.35;98800.78;4297687;33;20527;-90
2021/01/14 09:38:45;;;;;;;4.05;2.08;;;;;;;3.33;59.37;98810.06;4321884;33;20083;-90
2021/01/14 09:41:13;;;;;;;1.55;1.00;;;;;;;3.39;59.37;98812.50;4298913;33;20495;-91
2021/01/14 09:43:41;;;;;;;3.83;1.65;;;;;;;3.45;59.37;98826.13;4310609;33;20112;-91
2021/01/14 09:46:11;;;;;;;3.75;1.10;;;;;;;3.55;59.38;98825.06;4298104;33;20159;-92
2021/01/14 09:48:37;;;;;;;3.25;1.48;;;;;;;3.39;59.37;98829.66;4308295;33;20118;-90
2021/01/14 09:51:07;;;;;;;5.90;1.58;;;;;;;3.03;59.34;98834.56;4307954;33;20433;-91
2021/01/14 09:53:32;;;;;;;3.20;1.65;;;;;;;3.39;59.37;98845.09;4307938;33;20104;-89
2021/01/14 09:55:58;;;;;;;4.50;1.70;;;;;;;3.40;59.37;98839.09;4319780;33;20406;-89
2021/01/14 09:58:23;;;;;;;3.45;1.33;;;;;;;3.46;59.38;98845.84;4308147;33;20130;-90
2021/01/14 10:00:50;;;;;;;3.22;1.42;;;;;;;3.49;59.37;98830.34;4308744;33;20139;-88
2021/01/14 10:03:17;;;;;;;3.97;1.65;;;;;;;3.35;59.37;98843.47;4308127;33;20224;-90
2021/01/14 10:05:42;;;;;;;2.87;1.50;;;;;;;3.41;59.37;98847.66;4308346;33;20116;-88
2021/01/14 10:08:16;;;;;;;5.47;2.00;;;;;;;3.63;59.39;98854.09;4309579;33;20331;-89
2021/01/14 10:10:41;;;;;;;3.03;1.75;;;;;;;3.61;59.38;98850.72;4308575;33;20166;-90
2021/01/14 10:13:15;;;;;;;1.75;1.20;;;;;;;3.75;59.38;98861.59;4308392;33;20175;-92
2021/01/14 10:15:41;;;;;;;3.03;1.27;;;;;;;3.67;59.38;98871.19;4297658;33;20138;-92
2021/01/14 10:18:06;;;;;;;1.95;1.20;;;;;;;3.57;59.37;98872.25;4296878;33;20103;-91
2021/01/14 10:20:35;;;;;;;4.82;1.65;;;;;;;3.52;59.37;98864.56;4309632;33;20092;-93
2021/01/14 10:23:00;;;;;;;2.92;1.12;;;;;;;3.73;59.39;98844.47;4311335;33;20103;-92
2021/01/14 10:25:25;;;;;;;3.03;1.20;;;;;;;3.48;59.38;98844.09;4310937;33;20142;-92
2021/01/14 10:28:01;;;;;;;3.28;1.15;;;;;;;3.43;59.37;98835.59;4309012;33;20401;-90
2021/01/14 10:30:27;;;;;;;2.03;0.95;;;;;;;3.42;59.37;98846.78;4292091;33;20104;-89
2021/01/14 10:33:02;;;;;;;1.90;1.35;;;;;;;3.38;59.36;98851.97;4291618;33;20245;-88
2021/01/14 10:35:29;;;;;;;3.83;1.62;;;;;;;3.33;59.37;98848.63;4304122;33;20119;-88
2021/01/14 10:38:14;;;;;;;2.47;1.30;;;;;;;3.16;59.36;98840.34;4291445;33;20096;-89
2021/01/14 10:40:43;;;;;;;3.10;1.52;;;;;;;3.12;59.35;98840.44;4303801;33;20092;-89
2021/01/14 10:43:09;;;;;;;2.07;1.33;;;;;;;3.13;59.35;98842.97;4303566;33;20115;-89
2021/01/14 10:45:36;;;;;;;2.30;1.65;;;;;;;2.93;59.34;98848.44;4304084;33;20122;-88
2021/01/14 10:48:13;;;;;;;4.87;1.80;;;;;;;2.98;59.34;98874.91;4304435;33;20088;-89
2021/01/14 10:50:49;;;;;;;4.62;1.23;;;;;;;3.05;59.35;98855.94;4292220;33;20107;-91
2021/01/14 10:53:27;;;;;;;1.70;1.20;;;;;;;3.12;59.35;98876.44;4292603;33;20450;-89
2021/01/14 10:56:20;;;;;;;6.40;1.95;;;;;;;2.94;59.35;98883.56;4303668;33;20100;-90
2021/01/14 10:58:54;;;;;;;1.73;1.33;;;;;;;3.06;59.35;98903.06;4290224;33;20114;-89
2021/01/14 11:01:20;;;;;;;2.35;1.40;;;;;;;3.20;59.36;98890.00;4302979;33;20104;-89
2021/01/14 11:03:45;;;;;;;3.10;1.45;;;;;;;3.13;59.35;98878.97;4315316;33;20109;-89
2021/01/14 11:06:11;;;;;;;3.33;1.50;;;;;;;3.02;59.34;98886.00;4291708;33;20154;-90
2021/01/14 11:08:46;;;;;;;4.32;1.73;;;;;;;2.83;59.34;98885.41;4291623;33;20118;-88
2021/01/14 11:11:13;;;;;;;7.90;3.00;;;;;;;3.25;59.36;98885.63;4291472;33;20101;-88
2021/01/14 11:13:38;;;;;;;5.82;2.67;;;;;;;3.42;59.37;98887.94;4303258;33;20485;-88
2021/01/14 11:16:04;;;;;;;8.50;3.17;;;;;;;3.48;59.38;98892.97;4315513;33;20155;-88
2021/01/14 11:18:30;;;;;;;11.23;3.35;;;;;;;3.37;59.36;98886.28;4303193;33;20088;-89
2021/01/14 11:20:55;;;;;;;11.35;4.60;;;;;;;3.59;59.38;98867.91;4302965;33;20147;-89
2021/01/14 11:23:21;;;;;;;15.50;5.50;;;;;;;3.77;59.39;98857.25;4302439;33;20178;-88
2021/01/14 11:25:46;;;;;;;2.47;1.73;;;;;;;3.76;59.38;98854.72;4290721;33;20104;-89
2021/01/14 11:28:11;;;;;;;5.05;2.08;;;;;;;3.66;59.38;98847.16;4317084;33;20402;-88
2021/01/14 11:30:37;;;;;;;2.53;1.70;;;;;;;3.80;59.39;98846.94;4308279;33;20147;-88
2021/01/14 11:33:02;;;;;;;2.65;1.45;;;;;;;3.66;59.38;98852.31;4296222;33;25550;-89
2021/01/14 11:35:28;;;;;;;4.80;1.90;;;;;;;4.01;59.40;98863.66;4294850;33;20107;-90
2021/01/14 11:37:53;;;;;;;2.95;1.73;;;;;;;4.00;59.40;98860.22;4317617;33;20151;-90
2021/01/14 11:40:19;;;;;;;4.65;1.92;;;;;;;3.68;59.39;98876.31;4318302;33;20136;-90
2021/01/14 11:42:44;;;;;;;2.00;1.35;;;;;;;3.69;59.39;98885.72;4293739;33;20104;-90
2021/01/14 11:45:11;;;;;;;4.22;1.62;;;;;;;3.77;59.39;98879.56;4293059;33;26548;-89
2021/01/14 11:47:36;;;;;;;4.32;1.77;;;;;;;3.72;59.39;98876.25;4305817;33;20099;-89
2021/01/14 11:50:02;;;;;;;3.15;1.60;;;;;;;3.74;59.39;98889.94;4305773;33;20359;-91